Sigonella Airport LICZ

Flugplatz Daten

Name: Sigonella Airport

Ident: LICZ

Lat: 37,40169907

Long: 14,92240047

Platzhöhe: 79 ft

IataCode: NSY

City:

Metar

2022/08/13 17:55
LICZ 131755Z /////KT 9999 FEW030 SCT070 27/27 Q1009 RMK SCT VIS MIN 9999 WIND THR28 10004KT WIND THR10 08004KT A2982 BLU

Taf

2022/08/13 18:27
TAF LICZ 131700Z 1318/1418 09010KT 9999 FEW020 SCT070 PROB30
TEMPO 1318/1320 7000 TSRA FEW015CB
BECMG 1320/1322 VRB03KT
BECMG 1410/1412 09010KT
Gewünschte Webcam nicht vorhanden? Dann fügen Sie eine hinzu. Sie wird dann so schnell wie möglich freigeschaltet
Url: Title: